Time;durP1;ratioP1;P1;durP2;ratioP2;P2;SDS_P1;SDS_P2;PMS_P1;PMS_P2;Temp;Humidity;BMP_temperature;BMP_pressure;BME280_temperature;BME280_humidity;BME280_pressure;Samples;Min_cycle;Max_cycle;Signal;HPM_P1;HPM_P2
2023/05/10 00:02:09;;;;;;;1999.90;999.90;;;13.00;99.90;;;;;;6659905;89;20209;-76
2023/05/10 00:12:09;;;;;;;1999.90;999.90;;;13.00;99.90;;;;;;6661837;89;20204;-76
2023/05/10 00:22:10;;;;;;;1999.90;999.90;;;13.00;99.90;;;;;;6662172;89;20559;-76
2023/05/10 00:32:10;;;;;;;1999.90;999.90;;;13.00;99.90;;;;;;6662753;89;20747;-75
2023/05/10 00:42:11;;;;;;;1999.90;999.90;;;13.00;99.90;;;;;;6662281;89;20690;-75
2023/05/10 00:52:12;;;;;;;1999.90;999.90;;;12.90;99.90;;;;;;6662890;89;20675;-76
2023/05/10 01:02:13;;;;;;;1999.90;999.90;;;13.00;99.90;;;;;;6661910;89;20667;-75
2023/05/10 01:12:13;;;;;;;1999.90;999.90;;;13.00;99.90;;;;;;6660841;89;20211;-76
2023/05/10 01:22:53;;;;;;;1999.90;999.90;;;13.00;99.90;;;;;;6665960;89;20201;-74
2023/05/10 01:33:00;;;;;;;1999.90;999.90;;;13.00;99.90;;;;;;6664414;89;20203;-77
2023/05/10 01:43:03;;;;;;;1999.90;999.90;;;12.90;99.90;;;;;;6679574;89;20191;-76
2023/05/10 01:53:07;;;;;;;1999.90;999.90;;;12.90;99.90;;;;;;6664977;89;20210;-76
2023/05/10 02:03:10;;;;;;;1999.90;999.90;;;12.80;99.90;;;;;;6664749;89;20699;-75
2023/05/10 02:13:11;;;;;;;1999.90;999.90;;;12.80;99.90;;;;;;6664862;88;20209;-76
2023/05/10 02:23:13;;;;;;;1999.90;999.90;;;12.80;99.90;;;;;;6664271;88;20192;-75
2023/05/10 02:33:14;;;;;;;1999.90;999.90;;;12.70;99.90;;;;;;6663683;89;20212;-76
2023/05/10 02:43:16;;;;;;;1999.90;999.90;;;12.70;99.90;;;;;;6667205;89;20184;-76
2023/05/10 02:53:30;;;;;;;1999.90;999.90;;;12.70;99.90;;;;;;6667730;89;20209;-76
2023/05/10 03:03:30;;;;;;;1999.90;999.90;;;12.70;99.90;;;;;;6663695;89;20262;-76
2023/05/10 03:13:46;;;;;;;1999.90;999.90;;;12.70;99.90;;;;;;6663710;89;21076;-75
2023/05/10 03:23:58;;;;;;;1999.90;999.90;;;12.80;99.90;;;;;;6662786;89;20351;-74
2023/05/10 03:33:58;;;;;;;1999.90;999.90;;;12.80;99.90;;;;;;6662150;89;20231;-76
2023/05/10 03:43:59;;;;;;;1999.90;999.90;;;12.80;99.90;;;;;;6662702;89;20722;-75
2023/05/10 03:53:59;;;;;;;1999.90;999.90;;;12.90;99.90;;;;;;6663468;89;20200;-76
2023/05/10 04:04:00;;;;;;;1999.90;999.90;;;12.90;99.90;;;;;;6661780;88;20199;-76
2023/05/10 04:24:04;;;;;;;1999.90;999.90;;;12.90;99.90;;;;;;6657808;89;20232;-79
2023/05/10 04:34:05;;;;;;;1999.90;999.90;;;13.00;99.90;;;;;;6657475;89;20215;-79
2023/05/10 04:44:06;;;;;;;1999.90;999.90;;;13.00;99.90;;;;;;6657685;89;20219;-80
2023/05/10 04:54:06;;;;;;;1999.90;999.90;;;13.00;99.90;;;;;;6661048;89;20239;-79
2023/05/10 05:04:07;;;;;;;1999.90;999.90;;;13.00;99.90;;;;;;6670417;89;20222;-80
2023/05/10 05:14:07;;;;;;;1999.90;999.90;;;13.10;99.90;;;;;;6661495;89;20191;-80
2023/05/10 05:24:08;;;;;;;1999.90;999.90;;;13.20;99.90;;;;;;6661382;89;20212;-79
2023/05/10 05:34:08;;;;;;;1999.90;999.90;;;13.20;99.90;;;;;;6649120;89;20273;-79
2023/05/10 05:44:09;;;;;;;1999.90;999.90;;;13.30;99.90;;;;;;6657535;89;20241;-77
2023/05/10 05:54:10;;;;;;;1999.90;999.90;;;13.40;99.90;;;;;;6654030;89;20477;-77
2023/05/10 06:04:11;;;;;;;1999.90;999.90;;;13.50;99.90;;;;;;6656870;89;20562;-78
2023/05/10 06:14:11;;;;;;;1999.90;999.90;;;13.70;99.90;;;;;;6652554;89;20210;-77
2023/05/10 06:24:12;;;;;;;1999.90;999.90;;;14.00;99.90;;;;;;6654541;89;20353;-77
2023/05/10 06:34:13;;;;;;;1999.90;999.90;;;14.30;99.90;;;;;;6670606;89;20205;-77
2023/05/10 06:44:13;;;;;;;1999.90;999.90;;;14.40;99.90;;;;;;6664049;88;20838;-77
2023/05/10 06:54:14;;;;;;;1999.90;999.90;;;14.10;99.90;;;;;;6675954;89;20226;-78
2023/05/10 07:04:15;;;;;;;1999.90;999.90;;;14.00;99.90;;;;;;6677684;89;20192;-78
2023/05/10 07:14:15;;;;;;;1999.90;999.90;;;14.00;99.90;;;;;;6656420;89;20250;-78
2023/05/10 07:24:16;;;;;;;1999.90;999.90;;;13.90;99.90;;;;;;6646318;89;21108;-78
2023/05/10 07:34:17;;;;;;;1999.90;999.90;;;14.00;99.90;;;;;;6662208;89;20702;-78
2023/05/10 07:44:20;;;;;;;1999.90;999.90;;;13.90;99.90;;;;;;6663727;89;20200;-78
2023/05/10 07:54:21;;;;;;;1999.90;999.90;;;13.90;99.90;;;;;;6651072;88;20278;-77
2023/05/10 08:04:22;;;;;;;1999.90;999.90;;;13.80;99.90;;;;;;6647805;89;20208;-77
2023/05/10 08:14:22;;;;;;;1999.90;999.90;;;13.90;99.90;;;;;;6657332;89;20310;-77
2023/05/10 08:24:23;;;;;;;1999.90;999.90;;;14.00;99.90;;;;;;6654524;89;20187;-77
2023/05/10 08:34:23;;;;;;;1999.90;999.90;;;14.10;99.90;;;;;;6654445;89;20199;-77
2023/05/10 08:44:24;;;;;;;1999.90;999.90;;;14.40;99.90;;;;;;6657463;89;20229;-77
2023/05/10 08:54:25;;;;;;;1999.90;999.90;;;14.60;99.90;;;;;;6666895;89;20726;-77
2023/05/10 09:04:26;;;;;;;1999.90;999.90;;;14.70;99.90;;;;;;6667061;89;20188;-77
2023/05/10 09:14:27;;;;;;;1999.90;999.90;;;14.50;99.90;;;;;;6664224;88;20617;-77
2023/05/10 09:24:29;;;;;;;1999.90;999.90;;;14.00;99.90;;;;;;6668894;88;20195;-77
2023/05/10 09:34:32;;;;;;;1999.90;999.90;;;13.90;99.90;;;;;;6665588;88;20589;-77
2023/05/10 09:44:33;;;;;;;1999.90;999.90;;;14.00;99.90;;;;;;6659509;88;20196;-78
2023/05/10 09:54:34;;;;;;;1999.90;999.90;;;14.10;99.90;;;;;;6656425;89;20311;-78
2023/05/10 10:04:39;;;;;;;1999.90;999.90;;;14.60;99.90;;;;;;6659332;89;20228;-78
2023/05/10 10:14:40;;;;;;;1999.90;999.90;;;15.00;99.90;;;;;;6662609;78;20238;-75
2023/05/10 10:24:41;;;;;;;1999.90;999.90;;;15.50;99.90;;;;;;6665435;88;20179;-75
2023/05/10 10:34:41;;;;;;;1999.90;999.90;;;15.80;99.90;;;;;;6669035;88;20230;-75
2023/05/10 10:44:42;;;;;;;1999.90;999.90;;;15.60;99.90;;;;;;6667157;89;20220;-76
2023/05/10 10:54:52;;;;;;;1999.90;999.90;;;15.30;99.90;;;;;;6666866;88;20243;-76
2023/05/10 11:04:52;;;;;;;1999.90;999.90;;;16.20;99.90;;;;;;6677062;88;20245;-76
2023/05/10 11:14:57;;;;;;;1999.90;999.90;;;15.90;99.90;;;;;;6671409;88;20266;-76
2023/05/10 11:24:58;;;;;;;1999.90;999.90;;;16.50;99.90;;;;;;6671769;89;20222;-75
2023/05/10 11:34:59;;;;;;;1999.90;999.90;;;16.70;99.90;;;;;;6680136;89;20264;-76
2023/05/10 11:45:00;;;;;;;1999.90;999.90;;;17.10;99.90;;;;;;6666594;88;20191;-75
2023/05/10 11:55:02;;;;;;;1999.90;999.90;;;17.50;99.90;;;;;;6665111;88;20172;-76
2023/05/10 12:05:04;;;;;;;1999.90;999.90;;;18.20;99.90;;;;;;6664278;88;20231;-76
2023/05/10 12:15:10;;;;;;;1999.90;999.90;;;18.10;99.90;;;;;;6665033;89;20206;-76
2023/05/10 12:25:10;;;;;;;1999.90;999.90;;;17.50;99.90;;;;;;6662627;89;20616;-76
2023/05/10 12:35:11;;;;;;;1999.90;999.90;;;17.10;99.90;;;;;;6664081;89;20688;-76
2023/05/10 12:45:12;;;;;;;1999.90;999.90;;;17.20;99.90;;;;;;6662669;89;20707;-76
2023/05/10 12:55:15;;;;;;;1999.90;999.90;;;17.00;99.90;;;;;;6671824;88;20696;-76
2023/05/10 13:05:16;;;;;;;1999.90;999.90;;;16.80;99.90;;;;;;6662268;88;20291;-77
2023/05/10 13:15:16;;;;;;;1999.90;999.90;;;15.50;99.90;;;;;;6663818;89;20208;-76
2023/05/10 13:25:17;;;;;;;1999.90;999.90;;;15.20;99.90;;;;;;6661869;89;20226;-76
2023/05/10 13:35:18;;;;;;;1999.90;999.90;;;15.70;99.90;;;;;;6666221;89;20292;-75
2023/05/10 13:45:18;;;;;;;1999.90;999.90;;;16.20;99.90;;;;;;6666581;88;20176;-76
2023/05/10 13:55:19;;;;;;;1999.90;999.90;;;16.00;99.90;;;;;;6665837;88;20222;-76
2023/05/10 14:05:20;;;;;;;1999.90;999.90;;;15.80;99.90;;;;;;6667310;89;20203;-76
2023/05/10 14:15:21;;;;;;;1999.90;999.90;;;15.50;99.90;;;;;;6666959;88;20188;-76
2023/05/10 14:25:21;;;;;;;1999.90;999.90;;;15.40;99.90;;;;;;6665001;89;20246;-77
2023/05/10 14:35:22;;;;;;;1999.90;999.90;;;15.00;99.90;;;;;;6666279;88;20214;-76
2023/05/10 14:45:23;;;;;;;1999.90;999.90;;;14.70;99.90;;;;;;6664403;89;20179;-76
2023/05/10 14:55:23;;;;;;;1999.90;999.90;;;14.70;99.90;;;;;;6663646;89;20726;-76
2023/05/10 15:05:24;;;;;;;1999.90;999.90;;;15.20;99.90;;;;;;6666351;88;20352;-76
2023/05/10 15:15:25;;;;;;;1999.90;999.90;;;14.80;99.90;;;;;;6670749;88;20680;-75
2023/05/10 15:25:25;;;;;;;1999.90;999.90;;;14.70;99.90;;;;;;6665369;89;20211;-75
2023/05/10 15:35:26;;;;;;;1999.90;999.90;;;14.70;99.90;;;;;;6667438;89;20211;-74
2023/05/10 15:45:27;;;;;;;1999.90;999.90;;;14.70;99.90;;;;;;6678111;88;20955;-75
2023/05/10 15:55:27;;;;;;;1999.90;999.90;;;14.80;99.90;;;;;;6673454;88;20622;-76
2023/05/10 16:05:31;;;;;;;1999.90;999.90;;;14.70;99.90;;;;;;6663764;88;20259;-75
2023/05/10 16:15:32;;;;;;;1999.90;999.90;;;14.80;99.90;;;;;;6667978;78;20640;-78
2023/05/10 16:25:32;;;;;;;1999.90;999.90;;;14.80;99.90;;;;;;6661673;89;20200;-77
2023/05/10 16:35:33;;;;;;;1999.90;999.90;;;14.70;99.90;;;;;;6666102;89;20212;-78
2023/05/10 16:45:33;;;;;;;1999.90;999.90;;;14.80;99.90;;;;;;6654891;89;20196;-79
2023/05/10 16:55:34;;;;;;;1999.90;999.90;;;14.70;99.90;;;;;;6658449;89;20219;-77
2023/05/10 17:05:35;;;;;;;1999.90;999.90;;;14.90;99.90;;;;;;6661592;89;20371;-79
2023/05/10 17:15:36;;;;;;;1999.90;999.90;;;14.80;99.90;;;;;;6659070;89;20213;-78
2023/05/10 17:25:36;;;;;;;1999.90;999.90;;;14.70;99.90;;;;;;6656946;89;20211;-79
2023/05/10 17:35:37;;;;;;;1999.90;999.90;;;14.60;99.90;;;;;;6664670;89;20203;-78
2023/05/10 17:45:38;;;;;;;1999.90;999.90;;;14.60;99.90;;;;;;6660155;89;20656;-78
2023/05/10 17:55:40;;;;;;;1999.90;999.90;;;14.70;99.90;;;;;;6654043;89;20209;-78
2023/05/10 18:05:41;;;;;;;1999.90;999.90;;;14.70;99.90;;;;;;6658131;89;20184;-78
2023/05/10 18:15:42;;;;;;;1999.90;999.90;;;14.50;99.90;;;;;;6659178;89;20689;-79
2023/05/10 18:25:42;;;;;;;1999.90;999.90;;;14.40;99.90;;;;;;6661775;89;20221;-79
2023/05/10 18:35:43;;;;;;;1999.90;999.90;;;14.30;99.90;;;;;;6661192;89;20212;-78
2023/05/10 18:45:44;;;;;;;1999.90;999.90;;;14.30;99.90;;;;;;6658843;89;20213;-78
2023/05/10 18:55:44;;;;;;;1999.90;999.90;;;14.30;99.90;;;;;;6663597;89;20191;-79
2023/05/10 19:05:47;;;;;;;1999.90;999.90;;;14.10;99.90;;;;;;6664973;89;20204;-79
2023/05/10 19:16:03;;;;;;;1999.90;999.90;;;14.10;99.90;;;;;;6657658;89;20493;-78
2023/05/10 19:26:03;;;;;;;;;;;13.90;99.90;;;;;;6655566;89;20662;-78
2023/05/10 19:36:04;;;;;;;1999.90;999.90;;;13.90;99.90;;;;;;6653273;89;20053;-78
2023/05/10 19:46:05;;;;;;;1999.90;999.90;;;13.80;99.90;;;;;;6659119;89;20329;-78
2023/05/10 19:56:06;;;;;;;1999.90;999.90;;;13.70;99.90;;;;;;6670485;89;20200;-79
2023/05/10 20:06:06;;;;;;;1999.90;999.90;;;13.50;99.90;;;;;;6660614;89;20199;-78
2023/05/10 20:16:07;;;;;;;1999.90;999.90;;;13.40;99.90;;;;;;6658654;89;20515;-78
2023/05/10 20:26:07;;;;;;;1999.90;999.90;;;13.30;99.90;;;;;;6662075;89;20194;-78
2023/05/10 20:36:08;;;;;;;1999.90;999.90;;;13.30;99.90;;;;;;6667870;89;20161;-78
2023/05/10 20:46:09;;;;;;;1999.90;999.90;;;13.20;99.90;;;;;;6669547;89;20986;-78
2023/05/10 20:56:09;;;;;;;1999.90;999.90;;;13.10;99.90;;;;;;6671204;89;20207;-79
2023/05/10 21:06:10;;;;;;;1999.90;999.90;;;13.00;99.90;;;;;;6663913;89;20640;-78
2023/05/10 21:16:10;;;;;;;1999.90;999.90;;;13.10;99.90;;;;;;6664894;89;20343;-77
2023/05/10 21:26:11;;;;;;;1999.90;999.90;;;13.10;99.90;;;;;;6673725;89;20180;-78
2023/05/10 21:36:11;;;;;;;1999.90;999.90;;;13.10;99.90;;;;;;6667579;89;20664;-78
2023/05/10 21:46:13;;;;;;;1999.90;999.90;;;13.10;99.90;;;;;;6667974;89;20212;-77
2023/05/10 21:56:13;;;;;;;1999.90;999.90;;;12.90;99.90;;;;;;6665627;89;20541;-78
2023/05/10 22:06:14;;;;;;;1999.90;999.90;;;12.80;99.90;;;;;;6663635;89;20187;-77
2023/05/10 22:26:18;;;;;;;1999.90;999.90;;;12.60;99.90;;;;;;6652867;89;20200;-77
2023/05/10 22:36:18;;;;;;;1999.90;999.90;;;12.60;99.90;;;;;;6653207;89;20871;-78
2023/05/10 22:46:19;;;;;;;1999.90;999.90;;;12.60;99.90;;;;;;6657405;89;20297;-78
2023/05/10 22:56:20;;;;;;;1999.90;999.90;;;12.40;99.90;;;;;;6655575;89;20282;-78
2023/05/10 23:06:21;;;;;;;1999.90;999.90;;;12.20;99.90;;;;;;6653152;88;20316;-77
2023/05/10 23:16:21;;;;;;;1999.90;999.90;;;12.10;99.90;;;;;;6653394;89;20195;-77
2023/05/10 23:26:22;;;;;;;1999.90;999.90;;;11.90;99.90;;;;;;6652283;89;20285;-78
2023/05/10 23:36:22;;;;;;;1999.90;999.90;;;11.80;99.90;;;;;;6656233;89;20182;-78
2023/05/10 23:46:23;;;;;;;1999.90;999.90;;;11.70;99.90;;;;;;6652929;89;20251;-77
2023/05/10 23:56:24;;;;;;;1999.90;999.90;;;11.70;99.90;;;;;;6668321;89;20181;-78
